createdAt,value
2023-01-17T00:00:37.047Z,82.64
2023-01-17T00:01:37.032Z,82.95
2023-01-17T00:02:37.021Z,82.84
2023-01-17T00:03:37.014Z,83.5
2023-01-17T00:04:37.000Z,83.61
2023-01-17T00:05:36.988Z,83.47
2023-01-17T00:06:36.977Z,83.56
2023-01-17T00:07:36.977Z,83.42
2023-01-17T00:08:36.955Z,82.74
2023-01-17T00:09:36.946Z,82.84
2023-01-17T00:10:36.937Z,82.23
2023-01-17T00:11:36.927Z,82.43
2023-01-17T00:12:36.915Z,82.54
2023-01-17T00:13:36.912Z,82.43
2023-01-17T00:14:36.898Z,82.12
2023-01-17T00:15:36.880Z,82.47
2023-01-17T00:16:36.879Z,82.43
2023-01-17T00:17:36.864Z,82.02
2023-01-17T00:18:36.866Z,81.75
2023-01-17T00:19:36.866Z,82.12
2023-01-17T00:20:36.832Z,81.92
2023-01-17T00:21:36.819Z,81.92
2023-01-17T00:22:36.807Z,81.61
2023-01-17T00:23:36.797Z,81.51
2023-01-17T00:24:36.788Z,81.65
2023-01-17T00:25:36.792Z,81.54
2023-01-17T00:26:36.762Z,81.96
2023-01-17T00:27:36.759Z,82.16
2023-01-17T00:28:36.744Z,82.16
2023-01-17T00:29:36.735Z,81.85
2023-01-17T00:30:36.733Z,81.54
2023-01-17T00:31:36.726Z,82.16
2023-01-17T00:32:36.708Z,82.06
2023-01-17T00:33:36.700Z,81.65
2023-01-17T00:34:36.691Z,81.81
2023-01-17T00:35:36.670Z,81.3
2023-01-17T00:36:36.659Z,81.09
2023-01-17T00:37:36.666Z,80.89
2023-01-17T00:38:36.640Z,80.93
2023-01-17T00:39:36.625Z,80.82
2023-01-17T00:40:36.617Z,81.13
2023-01-17T00:41:36.607Z,81.13
2023-01-17T00:42:36.595Z,80.93
2023-01-17T00:43:36.584Z,81.13
2023-01-17T00:44:36.578Z,81.17
2023-01-17T00:45:36.563Z,81.54
2023-01-17T00:46:36.551Z,81.27
2023-01-17T00:47:36.539Z,81.58
2023-01-17T00:48:36.533Z,81.27
2023-01-17T00:49:36.551Z,81.58
2023-01-17T00:50:36.508Z,81.79
2023-01-17T00:51:36.499Z,81.58
2023-01-17T00:52:36.491Z,81.58
2023-01-17T00:53:36.477Z,81.58
2023-01-17T00:54:36.469Z,81.48
2023-01-17T00:55:36.463Z,81.23
2023-01-17T00:56:36.445Z,80.82
2023-01-17T00:57:36.437Z,81.07
2023-01-17T00:58:36.426Z,81.17
2023-01-17T00:59:36.416Z,81.68
2023-01-17T01:00:36.407Z,81.68
2023-01-17T01:01:36.404Z,81.79
2023-01-17T01:02:36.382Z,81.37
2023-01-17T01:03:36.371Z,81.27
2023-01-17T01:04:36.363Z,81.68
2023-01-17T01:05:36.351Z,81.58
2023-01-17T01:06:36.343Z,81.68
2023-01-17T01:07:36.344Z,81.89
2023-01-17T01:08:36.327Z,81.68
2023-01-17T01:09:36.327Z,81.68
2023-01-17T01:10:36.301Z,81.79
2023-01-17T01:11:36.291Z,82.2
2023-01-17T01:12:36.278Z,81.89
2023-01-17T01:13:36.275Z,81.44
2023-01-17T01:14:36.258Z,81.27
2023-01-17T01:15:36.248Z,81.82
2023-01-17T01:16:36.238Z,81.99
2023-01-17T01:17:36.239Z,81.37
2023-01-17T01:18:36.217Z,81.68
2023-01-17T01:19:36.222Z,81.68
2023-01-17T01:20:36.191Z,81.58
2023-01-17T01:21:36.190Z,81.82
2023-01-17T01:22:36.176Z,81.79
2023-01-17T01:23:36.163Z,81.48
2023-01-17T01:24:36.151Z,81.54
2023-01-17T01:25:36.154Z,81.07
2023-01-17T01:26:36.134Z,81.03
2023-01-17T01:27:36.122Z,81.07
2023-01-17T01:28:36.115Z,81.07
2023-01-17T01:29:36.102Z,80.93
2023-01-17T01:30:36.093Z,80.68
2023-01-17T01:31:36.102Z,80
2023-01-17T01:32:36.067Z,80.41
2023-01-17T01:33:36.062Z,80.41
2023-01-17T01:34:36.051Z,80.3
2023-01-17T01:35:36.035Z,80.3
2023-01-17T01:36:36.031Z,80.1
2023-01-17T01:37:36.030Z,80.1
2023-01-17T01:38:36.009Z,80.3
2023-01-17T01:39:35.999Z,80.2
2023-01-17T01:40:35.989Z,80.41
2023-01-17T01:41:35.980Z,79.86
2023-01-17T01:42:35.969Z,79.9
2023-01-17T01:43:35.954Z,80
2023-01-17T01:44:35.950Z,80.2
2023-01-17T01:45:35.928Z,79.48
2023-01-17T01:46:35.925Z,80
2023-01-17T01:47:35.911Z,79.75
2023-01-17T01:48:35.899Z,79.24
2023-01-17T01:49:35.896Z,79.14
2023-01-17T01:50:35.883Z,79.24
2023-01-17T01:51:35.867Z,79.24
2023-01-17T01:52:35.866Z,79.48
2023-01-17T01:53:35.842Z,79.75
2023-01-17T01:54:35.833Z,79.75
2023-01-17T01:55:35.828Z,79.65
2023-01-17T01:56:35.830Z,79.86
2023-01-17T01:57:35.802Z,79.65
2023-01-17T01:58:35.794Z,79.65
2023-01-17T01:59:35.782Z,79.51
2023-01-17T02:00:35.775Z,79.1
2023-01-17T02:01:35.759Z,79.14
2023-01-17T02:02:35.773Z,80.1
2023-01-17T02:03:35.739Z,80.47
2023-01-17T02:04:35.728Z,80.27
2023-01-17T02:05:35.722Z,79.86
2023-01-17T02:06:35.708Z,80.41
2023-01-17T02:07:35.694Z,80.72
2023-01-17T02:08:35.706Z,80.93
2023-01-17T02:09:35.682Z,80.58
2023-01-17T02:10:35.669Z,80.51
2023-01-17T02:11:35.662Z,80.72
2023-01-17T02:12:35.655Z,80.79
2023-01-17T02:13:35.634Z,80.37
2023-01-17T02:14:35.685Z,80.58
2023-01-17T02:15:35.616Z,81.09
2023-01-17T02:16:35.607Z,80.99
2023-01-17T02:17:35.595Z,80.58
2023-01-17T02:18:35.584Z,80.93
2023-01-17T02:19:35.606Z,81.2
2023-01-17T02:20:35.576Z,81.03
2023-01-17T02:21:35.556Z,81.34
2023-01-17T02:22:35.544Z,81.54
2023-01-17T02:23:35.537Z,81.89
2023-01-17T02:24:35.528Z,81.89
2023-01-17T02:25:35.506Z,82.3
2023-01-17T02:26:35.510Z,82.1
2023-01-17T02:27:35.487Z,82.61
2023-01-17T02:28:35.482Z,82.57
2023-01-17T02:29:43.175Z,81.92
2023-01-17T02:30:43.106Z,81.3
2023-01-17T02:31:35.482Z,81.54
2023-01-17T02:32:35.435Z,81.34
2023-01-17T02:33:35.453Z,81.65
2023-01-17T02:34:35.440Z,81.92
2023-01-17T02:35:35.425Z,81.65
2023-01-17T02:36:35.416Z,81.68
2023-01-17T02:41:28.572Z,80.82
2023-01-17T02:42:28.537Z,81.03
2023-01-17T02:43:36.172Z,81.13
2023-01-17T02:44:28.514Z,80.82
2023-01-17T02:45:28.499Z,81.09
2023-01-17T02:46:36.169Z,80.85
2023-01-17T02:47:36.201Z,80.06
2023-01-17T02:48:28.474Z,80.2
2023-01-17T02:49:28.457Z,80.58
2023-01-17T02:50:36.207Z,80.68
2023-01-17T02:51:36.112Z,80.62
2023-01-17T02:52:28.443Z,80.72
2023-01-17T02:53:36.004Z,80.62
2023-01-17T02:54:28.418Z,80.62
2023-01-17T02:55:36.094Z,80.72
2023-01-17T02:56:28.399Z,80.72
2023-01-17T02:57:36.098Z,80.79
2023-01-17T02:58:28.363Z,80.16
2023-01-17T02:59:36.048Z,80.06
2023-01-17T03:00:35.998Z,80.06
2023-01-17T03:01:36.008Z,80.47
2023-01-17T03:02:28.342Z,80.58
2023-01-17T03:03:28.307Z,80.27
2023-01-17T03:04:28.360Z,80.27
2023-01-17T03:05:28.294Z,80.2
2023-01-17T03:06:35.940Z,80.72
2023-01-17T03:07:28.290Z,80.68
2023-01-17T03:08:28.281Z,80.27
2023-01-17T03:09:28.251Z,80.58
2023-01-17T03:10:28.236Z,80.33
2023-01-17T03:11:28.236Z,79.51
2023-01-17T03:12:28.223Z,79.44
2023-01-17T03:13:28.207Z,79.96
2023-01-17T03:14:28.188Z,80.3
2023-01-17T03:15:28.181Z,80.16
2023-01-17T03:16:28.165Z,79.86
2023-01-17T03:17:28.163Z,80.1
2023-01-17T03:18:28.149Z,80.51
2023-01-17T03:19:28.146Z,80.41
2023-01-17T03:20:28.125Z,80.41
2023-01-17T03:21:28.117Z,80.65
2023-01-17T03:22:28.108Z,80.93
2023-01-17T03:23:28.107Z,80.76
2023-01-17T03:24:28.090Z,81.03
2023-01-17T03:25:28.117Z,80.82
2023-01-17T03:26:28.081Z,81.17
2023-01-17T03:27:28.070Z,81.17
2023-01-17T03:28:28.069Z,81.48
2023-01-17T03:29:28.035Z,81.89
2023-01-17T03:30:28.021Z,81.89
2023-01-17T03:31:28.017Z,81.99
2023-01-17T03:32:28.002Z,81.85
2023-01-17T03:33:28.025Z,81.58
2023-01-17T03:34:28.070Z,81.93
2023-01-17T03:35:27.996Z,82.14
2023-01-17T03:36:27.987Z,82.24
2023-01-17T03:37:27.983Z,82.34
2023-01-17T03:38:27.976Z,82.45
2023-01-17T03:39:27.937Z,82.86
2023-01-17T03:40:27.939Z,82.75
2023-01-17T03:41:27.916Z,82.75
2023-01-17T03:42:27.892Z,82.86
2023-01-17T03:43:27.901Z,82.96
2023-01-17T03:44:27.865Z,82.89
2023-01-17T03:45:27.864Z,83.41
2023-01-17T03:46:27.852Z,83.58
2023-01-17T03:47:27.836Z,83.37
2023-01-17T03:48:27.849Z,83.58
2023-01-17T03:49:27.812Z,83.58
2023-01-17T03:50:27.805Z,83.31
2023-01-17T03:51:27.794Z,83.51
2023-01-17T03:52:27.783Z,83.51
2023-01-17T03:53:27.789Z,83.78
2023-01-17T03:54:27.777Z,83.68
2023-01-17T03:55:27.774Z,83.27
2023-01-17T03:56:27.743Z,83.37
2023-01-17T03:57:27.740Z,83.03
2023-01-17T03:58:27.721Z,82.75
2023-01-17T03:59:27.711Z,82.86
2023-01-17T04:00:27.702Z,83.06
2023-01-17T04:01:27.702Z,83.17
2023-01-17T04:02:27.678Z,83.17
2023-01-17T04:03:27.671Z,83
2023-01-17T04:04:27.667Z,83.41
2023-01-17T04:05:27.642Z,83.62
2023-01-17T04:06:27.639Z,83.37
2023-01-17T04:07:27.651Z,83.27
2023-01-17T04:08:27.628Z,82.75
2023-01-17T04:09:27.603Z,83
2023-01-17T04:10:27.616Z,83.1
2023-01-17T04:11:27.593Z,83.1
2023-01-17T04:12:27.576Z,83.2
2023-01-17T04:13:27.581Z,83.1
2023-01-17T04:14:27.559Z,82.69
2023-01-17T04:15:27.566Z,82.69
2023-01-17T04:16:27.529Z,82.79
2023-01-17T04:17:27.582Z,82.34
2023-01-17T04:18:27.541Z,82.07
2023-01-17T04:19:27.518Z,82.28
2023-01-17T04:20:27.498Z,82.17
2023-01-17T04:21:27.494Z,82.38
2023-01-17T04:22:27.465Z,82.48
2023-01-17T04:23:27.472Z,82.24
2023-01-17T04:24:27.472Z,81.72
2023-01-17T04:25:27.435Z,81.45
2023-01-17T04:26:27.431Z,81.86
2023-01-17T04:27:27.414Z,82.14
2023-01-17T04:28:27.431Z,81.72
2023-01-17T04:29:27.397Z,81.56
2023-01-17T04:30:27.417Z,81.56
2023-01-17T04:31:27.406Z,81.66
2023-01-17T04:32:27.368Z,81.86
2023-01-17T04:33:27.362Z,81.96
2023-01-17T04:34:27.348Z,81.76
2023-01-17T04:35:27.343Z,81.49
2023-01-17T04:36:27.322Z,81.8
2023-01-17T04:37:27.331Z,81.94
2023-01-17T04:38:27.297Z,82.25
2023-01-17T04:39:27.303Z,82.56
2023-01-17T04:40:27.287Z,82.76
2023-01-17T04:41:27.290Z,82.66
2023-01-17T04:42:27.262Z,82.87
2023-01-17T04:43:27.311Z,82.76
2023-01-17T04:44:27.249Z,82.87
2023-01-17T04:45:27.244Z,82.97
2023-01-17T04:46:27.225Z,83.18
2023-01-17T04:47:27.207Z,82.87
2023-01-17T04:48:27.206Z,82.97
2023-01-17T04:49:27.211Z,83.14
2023-01-17T04:50:27.173Z,82.93
2023-01-17T04:51:27.182Z,82.93
2023-01-17T04:52:27.166Z,83.14
2023-01-17T04:53:27.142Z,82.97
2023-01-17T04:54:27.146Z,83.53
2023-01-17T04:55:27.151Z,83.94
2023-01-17T04:56:27.123Z,84.39
2023-01-17T04:57:27.104Z,84.77
2023-01-17T04:58:27.093Z,84.45
2023-01-17T04:59:27.086Z,84.6
2023-01-17T05:00:27.073Z,84.87
2023-01-17T05:01:27.066Z,84.6
2023-01-17T05:02:27.057Z,84.6
2023-01-17T05:03:27.040Z,84.56
2023-01-17T05:04:27.030Z,84.36
2023-01-17T05:05:27.024Z,84.39
2023-01-17T05:06:27.017Z,84.19
2023-01-17T05:07:27.005Z,84.29
2023-01-17T05:08:27.002Z,84.36
2023-01-17T05:09:27.004Z,83.73
2023-01-17T05:10:26.973Z,83.56
2023-01-17T05:11:26.959Z,83.36
2023-01-17T05:12:26.948Z,83.15
2023-01-17T05:13:26.951Z,83.36
2023-01-17T05:14:26.931Z,83.36
2023-01-17T05:15:26.916Z,83.19
2023-01-17T05:16:26.910Z,83.61
2023-01-17T05:17:26.906Z,83.29
2023-01-17T05:18:26.884Z,83.71
2023-01-17T05:19:26.879Z,83.85
2023-01-17T05:20:26.871Z,83.85
2023-01-17T05:21:26.858Z,83.85
2023-01-17T05:22:26.849Z,83.75
2023-01-17T05:23:26.836Z,83.64
2023-01-17T05:24:26.831Z,83.61
2023-01-17T05:25:26.810Z,83.09
2023-01-17T05:26:26.806Z,83.02
2023-01-17T05:27:26.792Z,82.92
2023-01-17T05:28:26.783Z,82.78
2023-01-17T05:29:26.792Z,82.88
2023-01-17T05:30:26.772Z,82.88
2023-01-17T05:31:26.751Z,82.46
2023-01-17T05:32:26.742Z,82.71
2023-01-17T05:33:26.727Z,82.92
2023-01-17T05:34:26.718Z,83.33
2023-01-17T05:35:26.709Z,83.44
2023-01-17T05:36:26.699Z,83.37
2023-01-17T05:37:26.687Z,84.09
2023-01-17T05:38:26.677Z,84.41
2023-01-17T05:39:26.662Z,84.51
2023-01-17T05:40:26.661Z,84.47
2023-01-17T05:41:26.659Z,84.37
2023-01-17T05:42:26.651Z,84.37
2023-01-17T05:43:26.633Z,84.47
2023-01-17T05:44:26.611Z,84.47
2023-01-17T05:45:26.603Z,84.16
2023-01-17T05:46:26.592Z,83.95
2023-01-17T05:47:26.578Z,83.85
2023-01-17T05:48:26.599Z,83.85
2023-01-17T05:49:26.559Z,83.75
2023-01-17T05:50:26.560Z,83.85
2023-01-17T05:51:26.542Z,83.75
2023-01-17T05:52:26.532Z,83.71
2023-01-17T05:53:26.530Z,83.75
2023-01-17T05:54:26.517Z,83.81
2023-01-17T05:55:26.497Z,83.91
2023-01-17T05:56:26.503Z,83.61
2023-01-17T05:57:26.478Z,83.46
2023-01-17T05:58:26.466Z,83.36
2023-01-17T05:59:26.454Z,83.15
2023-01-17T06:00:26.447Z,82.84
2023-01-17T06:01:26.470Z,82.98
2023-01-17T06:02:26.453Z,83.09
2023-01-17T06:03:26.411Z,83.4
2023-01-17T06:04:26.407Z,83.81
2023-01-17T06:05:26.390Z,83.61
2023-01-17T06:06:26.459Z,83.5
2023-01-17T06:07:26.379Z,83.5
2023-01-17T06:08:26.365Z,83.81
2023-01-17T06:09:26.351Z,83.5
2023-01-17T06:10:33.928Z,83.36
2023-01-17T06:11:26.339Z,82.84
2023-01-17T06:12:26.321Z,82.84
2023-01-17T06:13:26.326Z,82.84
2023-01-17T06:14:26.295Z,82.64
2023-01-17T06:15:26.284Z,82.57
2023-01-17T06:16:26.272Z,82.67
2023-01-17T06:17:26.282Z,82.88
2023-01-17T06:18:26.266Z,82.98
2023-01-17T06:19:26.267Z,83.23
2023-01-17T06:20:26.242Z,83.4
2023-01-17T06:21:26.230Z,82.98
2023-01-17T06:22:26.289Z,82.88
2023-01-17T06:23:26.227Z,83.12
2023-01-17T06:24:26.220Z,83.09
2023-01-17T06:25:26.200Z,83.33
2023-01-17T06:26:26.187Z,83.33
2023-01-17T06:27:26.158Z,83.75
2023-01-17T06:28:26.149Z,83.85
2023-01-17T06:29:26.147Z,83.81
2023-01-17T06:30:26.146Z,83.54
2023-01-17T06:31:26.153Z,83.75
2023-01-17T06:32:26.113Z,84.16
2023-01-17T06:33:26.094Z,84.01
2023-01-17T06:34:26.082Z,83.5
2023-01-17T06:35:26.075Z,83.15
2023-01-17T06:36:26.067Z,82.74
2023-01-17T06:37:26.051Z,82.84
2023-01-17T06:38:26.048Z,82.43
2023-01-17T06:39:26.208Z,82.43
2023-01-17T06:40:26.020Z,82.43
2023-01-17T06:41:26.013Z,82.64
2023-01-17T06:42:26.011Z,82.43
2023-01-17T06:43:26.153Z,82.53
2023-01-17T06:44:26.004Z,82.32
2023-01-17T06:45:25.974Z,82.43
2023-01-17T06:46:25.958Z,82.22
2023-01-17T06:47:25.955Z,82.74
2023-01-17T06:48:25.947Z,82.43
2023-01-17T06:49:25.944Z,82.74
2023-01-17T06:50:25.935Z,82.29
2023-01-17T06:51:25.908Z,82.08
2023-01-17T06:52:25.891Z,81.67
2023-01-17T06:53:25.888Z,81.7
2023-01-17T06:54:25.879Z,82.01
2023-01-17T06:55:25.895Z,82.15
2023-01-17T06:56:25.850Z,82.36
2023-01-17T06:57:25.841Z,82.32
2023-01-17T06:58:25.843Z,82.43
2023-01-17T06:59:25.818Z,81.91
2023-01-17T07:00:25.813Z,81.87
2023-01-17T07:01:25.809Z,81.87
2023-01-17T07:02:25.816Z,81.42
2023-01-17T07:03:25.778Z,81.21
2023-01-17T07:04:25.770Z,80.7
2023-01-17T07:05:25.765Z,80.7
2023-01-17T07:06:25.743Z,80.7
2023-01-17T07:07:25.747Z,80.94
2023-01-17T07:08:25.723Z,81.25
2023-01-17T07:09:25.728Z,81.46
2023-01-17T07:10:25.720Z,81.42
2023-01-17T07:11:25.690Z,80.84
2023-01-17T07:12:25.681Z,81.49
2023-01-17T07:13:25.670Z,81.81
2023-01-17T07:14:25.659Z,81.81
2023-01-17T07:15:25.659Z,82.01
2023-01-17T07:16:25.639Z,81.87
2023-01-17T07:17:25.627Z,81.35
2023-01-17T07:18:25.619Z,81.15
2023-01-17T07:19:25.611Z,81.35
2023-01-17T07:20:25.597Z,81.05
2023-01-17T07:21:25.585Z,81.25
2023-01-17T07:22:25.579Z,81.15
2023-01-17T07:23:25.565Z,81.01
2023-01-17T07:24:25.557Z,80.9
2023-01-17T07:25:25.548Z,80.49
2023-01-17T07:26:25.533Z,80.32
2023-01-17T07:27:25.532Z,80.84
2023-01-17T07:28:25.511Z,81.15
2023-01-17T07:29:25.501Z,81.09
2023-01-17T07:30:25.491Z,81.56
2023-01-17T07:31:25.478Z,81.15
2023-01-17T07:32:25.479Z,81.29
2023-01-17T07:33:25.464Z,81.15
2023-01-17T07:34:25.450Z,81.05
2023-01-17T07:35:25.436Z,80.94
2023-01-17T07:36:25.431Z,80.94
2023-01-17T07:37:25.419Z,80.74
2023-01-17T07:38:25.404Z,80.98
2023-01-17T07:39:25.418Z,80.98
2023-01-17T07:40:25.385Z,81.05
2023-01-17T07:41:25.374Z,80.67
2023-01-17T07:42:25.369Z,80.88
2023-01-17T07:43:25.357Z,80.77
2023-01-17T07:44:25.346Z,81.12
2023-01-17T07:45:25.339Z,81.29
2023-01-17T07:46:25.328Z,81.29
2023-01-17T07:47:25.317Z,81.09
2023-01-17T07:48:25.301Z,80.84
2023-01-17T07:49:25.293Z,80.29
2023-01-17T07:50:25.286Z,79.56
2023-01-17T07:51:25.303Z,79.39
2023-01-17T07:52:25.257Z,79.84
2023-01-17T07:53:25.253Z,80.26
2023-01-17T07:54:25.234Z,80.53
2023-01-17T07:55:25.228Z,80.32
2023-01-17T07:56:25.216Z,80.11
2023-01-17T07:57:25.209Z,79.8
2023-01-17T07:58:25.209Z,80.01
2023-01-17T07:59:25.185Z,79.6
2023-01-17T08:00:25.186Z,79.39
2023-01-17T08:01:25.163Z,79.8
2023-01-17T08:02:25.152Z,80.01
2023-01-17T08:03:25.152Z,79.8
2023-01-17T08:04:25.130Z,79.6
2023-01-17T08:05:25.133Z,79.46
2023-01-17T08:06:25.112Z,78.94
2023-01-17T08:07:25.101Z,78.94
2023-01-17T08:08:25.090Z,78.63
2023-01-17T08:09:25.090Z,78.84
2023-01-17T08:10:25.067Z,78.98
2023-01-17T08:11:25.061Z,79.39
2023-01-17T08:12:25.050Z,79.29
2023-01-17T08:13:25.038Z,79.19
2023-01-17T08:14:25.024Z,78.98
2023-01-17T08:15:25.038Z,79.08
2023-01-17T08:16:25.007Z,78.91
2023-01-17T08:17:25.050Z,79.49
2023-01-17T08:18:24.985Z,79.08
2023-01-17T08:19:24.971Z,78.98
2023-01-17T08:20:24.960Z,79.02
2023-01-17T08:21:24.951Z,79.08
2023-01-17T08:22:24.948Z,79.08
2023-01-17T08:23:24.937Z,79.08
2023-01-17T08:24:24.920Z,79.08
2023-01-17T08:25:24.908Z,78.77
2023-01-17T08:26:24.897Z,78.98
2023-01-17T08:27:24.897Z,78.46
2023-01-17T08:28:24.890Z,78.46
2023-01-17T08:29:24.870Z,78.32
2023-01-17T08:30:24.860Z,77.94
2023-01-17T08:31:24.846Z,78.25
2023-01-17T08:32:24.840Z,78.15
2023-01-17T08:33:24.855Z,78.15
2023-01-17T08:34:24.830Z,78.15
2023-01-17T08:35:24.805Z,77.94
2023-01-17T08:36:24.796Z,78.46
2023-01-17T08:37:24.785Z,78.11
2023-01-17T08:38:24.771Z,77.5
2023-01-17T08:39:24.764Z,77.5
2023-01-17T08:40:24.763Z,77.39
2023-01-17T08:41:24.746Z,77.29
2023-01-17T08:42:24.749Z,76.98
2023-01-17T08:43:24.719Z,77.01
2023-01-17T08:44:24.714Z,77.08
2023-01-17T08:45:24.700Z,76.77
2023-01-17T08:46:24.696Z,76.77
2023-01-17T08:47:24.696Z,76.87
2023-01-17T08:48:24.668Z,76.87
2023-01-17T08:49:24.660Z,76.53
2023-01-17T08:50:24.646Z,76.18
2023-01-17T08:51:24.640Z,76.77
2023-01-17T08:52:24.633Z,76.36
2023-01-17T08:53:24.681Z,76.36
2023-01-17T08:54:24.608Z,76.36
2023-01-17T08:55:24.601Z,76.22
2023-01-17T08:56:24.585Z,75.7
2023-01-17T08:57:24.582Z,75.7
2023-01-17T08:58:24.571Z,75.49
2023-01-17T08:59:24.569Z,75.74
2023-01-17T09:00:24.542Z,76.15
2023-01-17T09:01:24.546Z,76.12
2023-01-17T09:02:24.523Z,75.91
2023-01-17T09:03:24.507Z,75.95
2023-01-17T09:04:24.503Z,76.12
2023-01-17T09:05:24.493Z,75.87
2023-01-17T09:06:24.514Z,75.19
2023-01-17T09:07:24.473Z,75.39
2023-01-17T09:08:24.458Z,75.29
2023-01-17T09:09:24.445Z,75.09
2023-01-17T09:10:24.436Z,75.09
2023-01-17T09:11:24.427Z,74.95
2023-01-17T09:12:24.414Z,74.43
2023-01-17T09:13:24.401Z,74.84
2023-01-17T09:14:24.411Z,74.95
2023-01-17T09:15:24.384Z,74.22
2023-01-17T09:16:24.383Z,74.84
2023-01-17T09:17:24.368Z,74.53
2023-01-17T09:18:24.350Z,74.19
2023-01-17T09:19:24.343Z,74.12
2023-01-17T09:20:24.372Z,74.22
2023-01-17T09:21:24.326Z,74.02
2023-01-17T09:22:24.322Z,73.71
2023-01-17T09:23:24.305Z,74.05
2023-01-17T09:24:24.291Z,74.33
2023-01-17T09:25:24.277Z,74.12
2023-01-17T09:26:24.271Z,74.12
2023-01-17T09:27:24.267Z,73.71
2023-01-17T09:28:24.265Z,73.81
2023-01-17T09:29:24.260Z,73.95
2023-01-17T09:30:24.227Z,74.15
2023-01-17T09:31:24.216Z,74.22
2023-01-17T09:32:24.205Z,73.98
2023-01-17T09:33:24.222Z,73.47
2023-01-17T09:34:24.203Z,73.26
2023-01-17T09:35:24.177Z,73.47
2023-01-17T09:36:24.168Z,73.26
2023-01-17T09:37:24.153Z,73.47
2023-01-17T09:38:24.149Z,73.36
2023-01-17T09:39:24.169Z,73.36
2023-01-17T09:40:24.123Z,73.16
2023-01-17T09:41:24.134Z,73.16
2023-01-17T09:42:24.106Z,73.02
2023-01-17T09:43:24.096Z,72.81
2023-01-17T09:44:24.082Z,72.47
2023-01-17T09:45:24.094Z,72.16
2023-01-17T09:46:24.072Z,71.85
2023-01-17T09:47:24.058Z,72.06
2023-01-17T09:48:24.050Z,71.85
2023-01-17T09:49:24.033Z,71.92
2023-01-17T09:50:24.023Z,71.44
2023-01-17T09:51:24.022Z,71.41
2023-01-17T09:52:24.006Z,71.23
2023-01-17T09:53:23.991Z,71.3
2023-01-17T09:54:23.988Z,71.1
2023-01-17T09:55:23.975Z,71.34
2023-01-17T09:56:23.962Z,71.34
2023-01-17T09:57:23.986Z,71.34
2023-01-17T09:58:23.945Z,71.55
2023-01-17T09:59:23.928Z,71.58
2023-01-17T10:00:23.937Z,71.2
2023-01-17T10:01:23.919Z,71.51
2023-01-17T10:02:23.899Z,71.92
2023-01-17T10:03:23.914Z,72.02
2023-01-17T10:04:23.884Z,72.13
2023-01-17T10:05:23.871Z,72.06
2023-01-17T10:06:23.857Z,71.41
2023-01-17T10:07:23.857Z,71.55
2023-01-17T10:08:23.839Z,70.92
2023-01-17T10:09:23.847Z,70.89
2023-01-17T10:10:23.821Z,70.79
2023-01-17T10:11:23.804Z,70.07
2023-01-17T10:12:23.799Z,70.07
2023-01-17T10:13:23.782Z,70.65
2023-01-17T10:14:23.773Z,71.3
2023-01-17T10:15:23.779Z,71.61
2023-01-17T10:16:23.760Z,71.81
2023-01-17T10:17:23.743Z,72.13
2023-01-17T10:18:23.737Z,72.16
2023-01-17T10:19:23.728Z,71.85
2023-01-17T10:20:23.713Z,71.95
2023-01-17T10:21:23.715Z,71.54
2023-01-17T10:22:23.699Z,71.75
2023-01-17T10:23:23.680Z,71.98
2023-01-17T10:24:23.674Z,72.19
2023-01-17T10:25:23.661Z,71.98
2023-01-17T10:26:23.654Z,72.19
2023-01-17T10:27:23.657Z,72.06
2023-01-17T10:28:23.631Z,71.54
2023-01-17T10:29:23.622Z,71.44
2023-01-17T10:30:23.609Z,71.33
2023-01-17T10:31:23.597Z,71.47
2023-01-17T10:32:23.592Z,71.78
2023-01-17T10:33:23.591Z,71.98
2023-01-17T10:34:23.569Z,71.61
2023-01-17T10:35:23.564Z,71.23
2023-01-17T10:36:23.556Z,71.33
2023-01-17T10:37:23.535Z,71.33
2023-01-17T10:38:23.526Z,71.44
2023-01-17T10:39:23.514Z,71.33
2023-01-17T10:40:23.506Z,70.89
2023-01-17T10:41:23.499Z,70.54
2023-01-17T10:42:23.503Z,70.27
2023-01-17T10:43:23.506Z,70.57
2023-01-17T10:44:23.468Z,70.47
2023-01-17T10:45:23.460Z,70.82
2023-01-17T10:46:23.455Z,71.3
2023-01-17T10:47:23.436Z,71.09
2023-01-17T10:48:23.429Z,70.99
2023-01-17T10:49:23.412Z,70.78
2023-01-17T10:50:23.407Z,70.68
2023-01-17T10:51:23.394Z,70.65
2023-01-17T10:52:23.388Z,70.31
2023-01-17T10:53:23.371Z,70.2
2023-01-17T10:54:23.367Z,69.65
2023-01-17T10:55:23.348Z,69.52
2023-01-17T10:56:23.352Z,68.98
2023-01-17T10:57:23.328Z,67.74
2023-01-17T10:58:23.318Z,68.18
2023-01-17T10:59:23.310Z,69.04
2023-01-17T11:00:23.300Z,68.93
2023-01-17T11:01:23.283Z,68.66
2023-01-17T11:02:23.283Z,68.83
2023-01-17T11:03:23.259Z,69.82
2023-01-17T11:04:23.257Z,69.48
2023-01-17T11:05:23.245Z,69.07
2023-01-17T11:06:23.228Z,69.48
2023-01-17T11:07:23.231Z,69.48
2023-01-17T11:08:23.204Z,69.35
2023-01-17T11:09:23.229Z,69.21
2023-01-17T11:10:23.186Z,68.35
2023-01-17T11:11:23.173Z,67.84
2023-01-17T11:12:23.171Z,68.02
2023-01-17T11:13:23.160Z,68.22
2023-01-17T11:14:23.142Z,67.36
2023-01-17T11:15:23.138Z,66.82
2023-01-17T11:16:23.121Z,66.44
2023-01-17T11:17:23.109Z,66.88
2023-01-17T11:18:23.100Z,67.12
2023-01-17T11:19:23.088Z,67.57
2023-01-17T11:20:23.080Z,67.74
2023-01-17T11:21:23.070Z,67.49
2023-01-17T11:22:23.056Z,67.93
2023-01-17T11:23:23.046Z,68.14
2023-01-17T11:24:23.036Z,68.66
2023-01-17T11:25:23.023Z,68.66
2023-01-17T11:26:23.032Z,68.32
2023-01-17T11:27:23.022Z,68.42
2023-01-17T11:28:22.995Z,68.11
2023-01-17T11:29:22.978Z,67.9
2023-01-17T11:30:23.055Z,68.11
2023-01-17T11:31:23.030Z,68.14
2023-01-17T11:32:22.953Z,68.66
2023-01-17T11:33:22.938Z,68.62
2023-01-17T11:34:23.826Z,68.42
2023-01-17T11:35:22.993Z,68.62
2023-01-17T11:36:22.905Z,68.21
2023-01-17T11:37:22.890Z,68.11
2023-01-17T11:38:22.884Z,67.87
2023-01-17T11:39:22.882Z,67.97
2023-01-17T11:40:22.866Z,67.57
2023-01-17T11:41:22.856Z,67.57
2023-01-17T11:42:22.842Z,67.74
2023-01-17T11:43:22.829Z,67.22
2023-01-17T11:44:22.826Z,66.91
2023-01-17T11:45:22.824Z,66.64
2023-01-17T11:46:22.800Z,65.59
2023-01-17T11:47:22.810Z,64.97
2023-01-17T11:48:22.782Z,64.39
2023-01-17T11:49:22.765Z,66.19
2023-01-17T11:50:22.771Z,66.58
2023-01-17T11:51:22.749Z,65.8
2023-01-17T11:52:22.758Z,65.28
2023-01-17T11:53:22.724Z,64.76
2023-01-17T11:54:22.717Z,65.28
2023-01-17T11:55:22.736Z,65.28
2023-01-17T11:56:22.740Z,64.97
2023-01-17T11:57:22.697Z,65.52
2023-01-17T11:58:22.685Z,65.89
2023-01-17T11:59:22.663Z,63.54
2023-01-17T12:00:22.652Z,61.85
2023-01-17T12:01:22.752Z,59.83
2023-01-17T12:02:22.631Z,57.01
2023-01-17T12:03:22.617Z,53.78
2023-01-17T12:04:22.628Z,53.24
2023-01-17T12:05:22.603Z,53.67
2023-01-17T12:06:22.589Z,54.28
2023-01-17T12:07:22.577Z,55.41
2023-01-17T12:08:22.573Z,57.43
2023-01-17T12:09:22.553Z,58.3
2023-01-17T12:10:22.560Z,59.15
2023-01-17T12:11:22.535Z,60.49
2023-01-17T12:12:22.525Z,62.6
2023-01-17T12:13:22.514Z,63.87
2023-01-17T12:14:22.503Z,64.54
2023-01-17T12:15:22.492Z,65.44
2023-01-17T12:16:22.516Z,64.15
2023-01-17T12:17:22.475Z,64.07
2023-01-17T12:18:22.468Z,64.36
2023-01-17T12:19:22.465Z,63.91
2023-01-17T12:20:22.444Z,63.32
2023-01-17T12:21:22.438Z,64.01
2023-01-17T12:22:22.422Z,61.76
2023-01-17T12:23:22.410Z,58.2
2023-01-17T12:24:22.408Z,57.15
2023-01-17T12:25:22.398Z,57.4
2023-01-17T12:26:22.385Z,57.64
2023-01-17T12:27:22.367Z,57.38
2023-01-17T12:28:22.363Z,56.4
2023-01-17T12:29:22.349Z,54.41
2023-01-17T12:30:22.338Z,52.76
2023-01-17T12:31:22.336Z,49.06
2023-01-17T12:32:22.310Z,47.6
2023-01-17T12:33:22.302Z,46.3
2023-01-17T12:34:22.294Z,47.91
2023-01-17T12:35:22.275Z,48.85
2023-01-17T12:36:22.267Z,48.95
2023-01-17T12:37:22.268Z,48.47
2023-01-17T12:38:22.247Z,49.65
2023-01-17T12:39:22.238Z,50.95
2023-01-17T12:40:22.222Z,52.4
2023-01-17T12:41:22.218Z,52.15
2023-01-17T12:42:22.219Z,52.55
2023-01-17T12:43:22.196Z,55.23
2023-01-17T12:44:22.219Z,57.82
2023-01-17T12:45:22.172Z,59.52
2023-01-17T12:46:22.172Z,59.92
2023-01-17T12:47:22.150Z,59.89
2023-01-17T12:48:22.140Z,59.69
2023-01-17T12:49:22.182Z,59.8
2023-01-17T12:50:22.121Z,60.33
2023-01-17T12:51:22.152Z,60.47
2023-01-17T12:52:22.100Z,60.67
2023-01-17T12:53:22.081Z,60.77
2023-01-17T12:54:22.073Z,60.52
2023-01-17T12:55:22.827Z,61.47
2023-01-17T12:56:22.058Z,61.17
2023-01-17T12:57:22.042Z,61.61
2023-01-17T12:58:22.048Z,61.3
2023-01-17T12:59:22.024Z,61.61